Austin, TX (78741)

7:44 PM CDT on July 29, 2015 (GMT -0500)
APRSWXNET | | Change Station
CLOSE
Current Station
Personal Weather Station
Location: Austin, TX
Elevation: 521 ft
Nearby Weather Stations

Elev 521 ft 30.22 °N, 97.69 °W | Updated 24 minutes ago

Partly Cloudy
Partly Cloudy
95 °F
Feels Like 101 °F
N
0
Wind Variable Wind from SSW
Gusts 3.0 mph

Today
High -- | Low -- °F
--% Chance of Precip.
Yesterday
High -- | Low -- °F
Precip. -- in
6:47 AM 8:26 PM
Waxing Gibbous, 97% visible
Pressure 29.93 in
Visibility 10.0 miles
Clouds Few 7500 ft
Scattered Clouds 9500 ft
Scattered Clouds 20000 ft
Heat Index 101 °F
Dew Point 69 °F
Humidity 43%
Rainfall in
Snow Depth Not available.
UV 1 out of 12
Pollen 6.30 out of 12
Air Quality Not available.
Flu Activity Not available.
METAR KAUS 292353Z 16008KT 10SM FEW075 SCT095 SCT200 36/19 A2996 RMK AO2 SLP134 T03560189 10372 20333 56008

More Conditions Fewer Conditions

Pressure 29.93 in
Visibility 10.0 miles
Clouds Few 7500 ft
Scattered Clouds 9500 ft
Scattered Clouds 20000 ft
Heat Index 101 °F
Dew Point 69 °F
Humidity 43%
Rainfall in
Snow Depth Not available.
UV 1 out of 12
Pollen 6.30 out of 12
Air Quality Not available.
Flu Activity Not available.
METAR KAUS 292353Z 16008KT 10SM FEW075 SCT095 SCT200 36/19 A2996 RMK AO2 SLP134 T03560189 10372 20333 56008

More Conditions Fewer Conditions

10-Day Weather Forecast

×

Almanac

Astronomy

Jul. 29, 2015 Rise Set
Actual Time
Civil Twilight
Nautical Twilight
Astronomical Twilight
Moon
Length of Visible Light
Length of Day
Tomorrow will be .
, % of the Moon is Illuminated

Today's Extremes

State Highs State Lows

Community

WunderPhotos

Upload Photos

1,842,233 photos uploaded!

WunderBlogs® & News

Nearby

Air Quality

  Air Quality AQ Index Pollutant
Not available.

Snow Depth

Station Depth Elevation

Earthquake Activity

City Distance Mag. Time & Date
Minimum magnitude displayed is 2.5.

Coastal Water Temperatures

Place Temperature

Stations

Nearby Weather Stations

Station Location Temp. Windchill Dew Point Humidity Wind Precip. Elev Updated Type